Time;durP1;ratioP1;P1;durP2;ratioP2;P2;SDS_P1;SDS_P2;PMS_P1;PMS_P2;Temp;Humidity;BMP_temperature;BMP_pressure;BME280_temperature;BME280_humidity;BME280_pressure;Samples;Min_cycle;Max_cycle;Signal;HPM_P1;HPM_P2
2023/05/12 00:00:19;;;;;;;;;3.00;3.00;;;;;-147.17;100.00;-15917.19;5049482;28;51283;-64
2023/05/12 00:02:45;;;;;;;;;4.00;4.00;;;;;-147.17;100.00;-15917.19;5046883;28;51396;-64
2023/05/12 00:05:10;;;;;;;;;3.33;3.33;;;;;-147.17;100.00;-15917.19;5037172;28;51270;-63
2023/05/12 00:07:35;;;;;;;;;5.00;4.00;;;;;-147.17;100.00;-15917.19;5038533;28;51968;-63
2023/05/12 00:10:01;;;;;;;;;2.00;2.00;;;;;-147.17;100.00;-15917.19;5039558;28;51231;-63
2023/05/12 00:12:27;;;;;;;;;2.33;2.00;;;;;-147.17;100.00;-15917.19;5049533;28;51051;-64
2023/05/12 00:14:52;;;;;;;;;4.00;4.00;;;;;-147.17;100.00;-15917.19;5049262;28;51362;-64
2023/05/12 00:17:17;;;;;;;;;3.00;3.00;;;;;-147.17;100.00;-15917.19;5045079;28;51754;-65
2023/05/12 00:19:43;;;;;;;;;3.33;3.33;;;;;-147.17;100.00;-15917.19;5031256;28;57234;-64
2023/05/12 00:22:11;;;;;;;;;2.00;2.00;;;;;-147.17;100.00;-15917.19;5045679;28;51033;-65
2023/05/12 00:24:37;;;;;;;;;2.00;1.33;;;;;-147.17;100.00;-15917.19;5039791;28;51239;-65
2023/05/12 00:27:03;;;;;;;;;2.00;2.00;;;;;-147.17;100.00;-15917.19;5048764;28;52789;-65
2023/05/12 00:29:28;;;;;;;;;3.00;2.00;;;;;-147.17;100.00;-15917.19;5047195;28;51073;-64
2023/05/12 00:31:56;;;;;;;;;3.67;3.00;;;;;-147.17;100.00;-15917.19;5046522;28;50994;-64
2023/05/12 00:34:21;;;;;;;;;2.33;2.00;;;;;-147.17;100.00;-15917.19;5050716;28;51224;-65
2023/05/12 00:36:47;;;;;;;;;3.00;2.00;;;;;-147.17;100.00;-15917.19;5046907;28;58670;-65
2023/05/12 00:39:12;;;;;;;;;2.00;2.00;;;;;-147.17;100.00;-15917.19;5048889;28;53020;-65
2023/05/12 00:41:37;;;;;;;;;3.00;3.00;;;;;-147.17;100.00;-15917.19;5051714;28;51178;-65
2023/05/12 00:44:03;;;;;;;;;3.00;3.00;;;;;-147.17;100.00;-15917.19;5045624;28;51379;-64
2023/05/12 00:46:29;;;;;;;;;2.00;2.00;;;;;-147.17;100.00;-15917.19;5043722;28;53099;-65
2023/05/12 00:48:54;;;;;;;;;2.00;2.00;;;;;-147.17;100.00;-15917.19;5032997;28;51067;-65
2023/05/12 00:51:19;;;;;;;;;3.00;2.33;;;;;-147.17;100.00;-15917.19;5051059;28;51185;-64
2023/05/12 00:53:48;;;;;;;;;4.67;2.67;;;;;-147.17;100.00;-15917.19;5052842;28;51236;-65
2023/05/12 00:56:16;;;;;;;;;2.00;1.67;;;;;-147.17;100.00;-15917.19;5053392;28;53657;-65
2023/05/12 00:58:41;;;;;;;;;2.33;2.00;;;;;-147.17;100.00;-15917.19;5046113;28;51147;-64
2023/05/12 01:01:07;;;;;;;;;8.00;7.00;;;;;-147.17;100.00;-15917.19;5033581;28;51271;-64
2023/05/12 01:03:32;;;;;;;;;3.67;3.00;;;;;-147.17;100.00;-15917.19;5054414;28;51449;-64
2023/05/12 01:06:08;;;;;;;;;1.33;1.33;;;;;-147.17;100.00;-15917.19;5052906;28;52453;-64
2023/05/12 01:08:34;;;;;;;;;3.00;2.00;;;;;-147.17;100.00;-15917.19;5052005;28;51198;-63
2023/05/12 01:10:59;;;;;;;;;2.33;1.33;;;;;-147.17;100.00;-15917.19;5054061;28;52737;-64
2023/05/12 01:13:26;;;;;;;;;2.00;2.00;;;;;-147.17;100.00;-15917.19;5052330;28;51073;-63
2023/05/12 01:15:54;;;;;;;;;3.00;3.00;;;;;-147.17;100.00;-15917.19;5053539;28;51823;-64
2023/05/12 01:18:22;;;;;;;;;2.00;2.00;;;;;-147.17;100.00;-15917.19;5051458;28;51579;-64
2023/05/12 01:20:48;;;;;;;;;4.00;2.33;;;;;-147.17;100.00;-15917.19;5053403;28;50994;-64
2023/05/12 01:23:17;;;;;;;;;2.33;2.00;;;;;-147.17;100.00;-15917.19;5043213;28;51386;-64
2023/05/12 01:25:47;;;;;;;;;2.67;2.33;;;;;-147.17;100.00;-15917.19;5051124;28;52281;-64
2023/05/12 01:28:14;;;;;;;;;3.00;3.00;;;;;-147.17;100.00;-15917.19;5053752;28;51115;-65
2023/05/12 01:30:41;;;;;;;;;3.33;3.00;;;;;-147.17;100.00;-15917.19;5054129;28;51010;-64
2023/05/12 01:33:07;;;;;;;;;3.00;2.00;;;;;-147.17;100.00;-15917.19;5053929;28;50977;-64
2023/05/12 01:35:33;;;;;;;;;2.00;2.00;;;;;-147.17;100.00;-15917.19;5052611;28;51146;-64
2023/05/12 01:37:58;;;;;;;;;3.00;3.00;;;;;-147.17;100.00;-15917.19;5052333;28;52712;-64
2023/05/12 01:40:23;;;;;;;;;4.00;4.00;;;;;-147.17;100.00;-15917.19;5022400;28;51459;-64
2023/05/12 01:42:48;;;;;;;;;3.33;3.33;;;;;-147.17;100.00;-15917.19;5053883;28;51132;-65
2023/05/12 01:45:14;;;;;;;;;3.00;3.00;;;;;-147.17;100.00;-15917.19;5046470;28;51805;-65
2023/05/12 01:47:39;;;;;;;;;1.67;1.67;;;;;-147.17;100.00;-15917.19;5043001;28;51093;-65
2023/05/12 01:50:05;;;;;;;;;3.00;3.00;;;;;-147.17;100.00;-15917.19;5031728;28;51402;-64
2023/05/12 01:52:31;;;;;;;;;2.67;2.00;;;;;-147.17;100.00;-15917.19;5031938;28;51249;-64
2023/05/12 01:54:56;;;;;;;;;3.00;3.00;;;;;-147.17;100.00;-15917.19;5046628;28;51797;-65
2023/05/12 01:57:22;;;;;;;;;3.00;3.00;;;;;-147.17;100.00;-15917.19;5053346;28;51134;-64
2023/05/12 01:59:47;;;;;;;;;4.00;3.00;;;;;-147.17;100.00;-15917.19;5044474;28;51414;-65
2023/05/12 02:02:12;;;;;;;;;3.00;3.00;;;;;-147.17;100.00;-15917.19;5042477;28;51258;-64
2023/05/12 02:04:38;;;;;;;;;3.00;2.00;;;;;-147.17;100.00;-15917.19;5053016;28;51924;-62
2023/05/12 02:07:03;;;;;;;;;3.00;2.00;;;;;-147.17;100.00;-15917.19;5053272;28;51134;-64
2023/05/12 02:09:28;;;;;;;;;1.00;1.00;;;;;-147.17;100.00;-15917.19;5050895;28;51119;-65
2023/05/12 02:11:54;;;;;;;;;5.00;3.00;;;;;-147.17;100.00;-15917.19;5053412;28;51181;-64
2023/05/12 02:14:19;;;;;;;;;3.67;3.00;;;;;-147.17;100.00;-15917.19;5052560;28;52618;-65
2023/05/12 02:16:46;;;;;;;;;4.67;3.67;;;;;-147.17;100.00;-15917.19;5052632;28;51082;-65
2023/05/12 02:19:11;;;;;;;;;5.67;5.00;;;;;-147.17;100.00;-15917.19;5053492;28;50913;-65
2023/05/12 02:21:36;;;;;;;;;5.00;5.00;;;;;-147.17;100.00;-15917.19;5052722;28;50934;-65
2023/05/12 02:24:02;;;;;;;;;4.00;3.33;;;;;-147.17;100.00;-15917.19;5050342;28;57931;-65
2023/05/12 02:26:27;;;;;;;;;4.33;4.33;;;;;-147.17;100.00;-15917.19;5046369;28;51109;-63
2023/05/12 02:28:53;;;;;;;;;3.67;3.67;;;;;-147.17;100.00;-15917.19;5052107;28;51280;-64
2023/05/12 02:31:18;;;;;;;;;3.00;3.00;;;;;-147.17;100.00;-15917.19;5050544;28;56097;-63
2023/05/12 02:33:44;;;;;;;;;3.00;2.67;;;;;-147.17;100.00;-15917.19;5052160;28;60229;-64
2023/05/12 02:36:09;;;;;;;;;3.67;2.67;;;;;-147.17;100.00;-15917.19;5049791;28;51151;-63
2023/05/12 02:38:35;;;;;;;;;6.33;5.00;;;;;-147.17;100.00;-15917.19;5051959;28;51345;-63
2023/05/12 02:41:00;;;;;;;;;2.00;2.00;;;;;-147.17;100.00;-15917.19;5052920;28;51221;-64
2023/05/12 02:43:25;;;;;;;;;4.67;4.67;;;;;-147.17;100.00;-15917.19;5035178;28;53162;-65
2023/05/12 02:45:51;;;;;;;;;2.00;1.33;;;;;-147.17;100.00;-15917.19;5044173;28;51489;-65
2023/05/12 02:48:16;;;;;;;;;5.00;5.00;;;;;-147.17;100.00;-15917.19;5049169;28;51323;-64
2023/05/12 02:50:42;;;;;;;;;4.67;3.00;;;;;-147.17;100.00;-15917.19;5051082;28;51341;-63
2023/05/12 02:53:07;;;;;;;;;2.00;2.00;;;;;-147.17;100.00;-15917.19;5048831;28;51028;-64
2023/05/12 02:55:32;;;;;;;;;4.33;4.00;;;;;-147.17;100.00;-15917.19;5048307;28;51324;-64
2023/05/12 02:57:58;;;;;;;;;4.00;4.00;;;;;-147.17;100.00;-15917.19;5049600;28;51354;-63
2023/05/12 03:00:23;;;;;;;;;3.00;2.67;;;;;-147.17;100.00;-15917.19;5052026;28;51103;-64
2023/05/12 03:02:49;;;;;;;;;3.33;3.33;;;;;-147.17;100.00;-15917.19;5051505;28;51911;-64
2023/05/12 03:05:14;;;;;;;;;3.67;3.33;;;;;-147.17;100.00;-15917.19;5052459;28;50974;-64
2023/05/12 03:07:40;;;;;;;;;3.00;3.00;;;;;-147.17;100.00;-15917.19;5053208;28;51156;-63
2023/05/12 03:10:06;;;;;;;;;5.67;3.33;;;;;-147.17;100.00;-15917.19;5049359;28;51054;-63
2023/05/12 03:12:31;;;;;;;;;3.00;2.00;;;;;-147.17;100.00;-15917.19;5020731;28;53438;-65
2023/05/12 03:14:56;;;;;;;;;5.33;4.33;;;;;-147.17;100.00;-15917.19;5051027;28;51037;-63
2023/05/12 03:17:22;;;;;;;;;3.67;3.67;;;;;-147.17;100.00;-15917.19;5051630;28;53799;-65
2023/05/12 03:19:47;;;;;;;;;3.67;3.00;;;;;-147.17;100.00;-15917.19;5052382;28;51239;-64
2023/05/12 03:22:13;;;;;;;;;3.00;3.00;;;;;-147.17;100.00;-15917.19;5050907;28;52167;-65
2023/05/12 03:24:38;;;;;;;;;3.00;2.00;;;;;-147.17;100.00;-15917.19;5049253;28;51794;-64
2023/05/12 03:27:04;;;;;;;;;4.00;4.00;;;;;-147.17;100.00;-15917.19;5050366;28;51548;-64
2023/05/12 03:29:30;;;;;;;;;3.33;3.33;;;;;-147.17;100.00;-15917.19;5049312;28;51255;-63
2023/05/12 03:31:55;;;;;;;;;6.67;3.00;;;;;-147.17;100.00;-15917.19;5051394;28;52645;-63
2023/05/12 03:34:21;;;;;;;;;4.00;4.00;;;;;-147.17;100.00;-15917.19;5051923;28;50966;-65
2023/05/12 03:36:46;;;;;;;;;5.67;5.00;;;;;-147.17;100.00;-15917.19;5052216;28;51080;-65
2023/05/12 03:39:11;;;;;;;;;5.00;5.00;;;;;-147.17;100.00;-15917.19;5052830;28;51279;-65
2023/05/12 03:41:37;;;;;;;;;5.33;4.33;;;;;-147.17;100.00;-15917.19;5046386;28;51548;-65
2023/05/12 03:44:04;;;;;;;;;4.67;4.00;;;;;-147.17;100.00;-15917.19;5051587;28;51137;-65
2023/05/12 03:46:30;;;;;;;;;5.00;4.00;;;;;-147.17;100.00;-15917.19;5050846;28;51266;-64
2023/05/12 03:48:56;;;;;;;;;4.00;4.00;;;;;-147.17;100.00;-15917.19;5052118;28;51348;-64
2023/05/12 03:51:21;;;;;;;;;4.67;4.00;;;;;-147.17;100.00;-15917.19;5051368;28;52029;-64
2023/05/12 03:53:46;;;;;;;;;7.67;5.67;;;;;-147.17;100.00;-15917.19;5043688;28;56065;-65
2023/05/12 03:56:12;;;;;;;;;5.00;5.00;;;;;-147.17;100.00;-15917.19;5043390;28;51442;-64
2023/05/12 03:58:37;;;;;;;;;4.00;4.00;;;;;-147.17;100.00;-15917.19;5047145;28;51186;-64
2023/05/12 04:01:03;;;;;;;;;4.67;4.33;;;;;-147.17;100.00;-15917.19;5035848;28;51703;-64
2023/05/12 04:03:28;;;;;;;;;4.33;4.33;;;;;-147.17;100.00;-15917.19;5047941;28;51123;-65
2023/05/12 04:05:58;;;;;;;;;4.00;3.67;;;;;-147.17;100.00;-15917.19;5050652;28;51069;-63
2023/05/12 04:08:24;;;;;;;;;4.00;3.33;;;;;-147.17;100.00;-15917.19;5049063;28;51424;-64
2023/05/12 04:10:49;;;;;;;;;6.33;4.00;;;;;-147.17;100.00;-15917.19;5048010;28;51638;-64
2023/05/12 04:13:14;;;;;;;;;5.00;3.67;;;;;-147.17;100.00;-15917.19;5048894;28;51108;-64
2023/05/12 04:15:39;;;;;;;;;4.00;4.00;;;;;-147.17;100.00;-15917.19;5035883;28;51131;-64
2023/05/12 04:18:05;;;;;;;;;4.00;4.00;;;;;-147.17;100.00;-15917.19;5042524;28;52227;-65
2023/05/12 04:20:30;;;;;;;;;2.33;2.33;;;;;-147.17;100.00;-15917.19;5046859;28;51059;-63
2023/05/12 04:22:56;;;;;;;;;3.33;3.33;;;;;-147.17;100.00;-15917.19;5047865;28;54243;-65
2023/05/12 04:25:21;;;;;;;;;5.00;2.67;;;;;-147.17;100.00;-15917.19;5054072;28;50977;-65
2023/05/12 04:27:46;;;;;;;;;5.00;5.00;;;;;-147.17;100.00;-15917.19;5050609;28;51389;-65
2023/05/12 04:30:12;;;;;;;;;3.00;3.00;;;;;-147.17;100.00;-15917.19;5041519;28;51850;-64
2023/05/12 04:32:37;;;;;;;;;4.33;4.33;;;;;-147.17;100.00;-15917.19;5016126;28;51150;-64
2023/05/12 04:35:02;;;;;;;;;6.00;5.00;;;;;-147.17;100.00;-15917.19;5050609;28;51037;-65
2023/05/12 04:37:28;;;;;;;;;4.00;3.33;;;;;-147.17;100.00;-15917.19;5037108;28;51348;-65
2023/05/12 04:39:53;;;;;;;;;2.00;2.00;;;;;-147.17;100.00;-15917.19;5051063;28;51884;-65
2023/05/12 04:42:18;;;;;;;;;6.67;6.00;;;;;-147.17;100.00;-15917.19;5046855;28;60164;-65
2023/05/12 04:44:46;;;;;;;;;3.00;3.00;;;;;-147.17;100.00;-15917.19;5054747;28;50864;-65
2023/05/12 04:47:12;;;;;;;;;2.67;2.67;;;;;-147.17;100.00;-15917.19;5055850;28;51131;-64
2023/05/12 04:49:37;;;;;;;;;1.33;1.33;;;;;-147.17;100.00;-15917.19;5047201;28;51628;-65
2023/05/12 04:52:04;;;;;;;;;3.33;3.00;;;;;-147.17;100.00;-15917.19;5052981;28;51209;-65
2023/05/12 04:54:30;;;;;;;;;2.33;2.00;;;;;-147.17;100.00;-15917.19;5054194;28;51214;-63
2023/05/12 04:56:56;;;;;;;;;2.33;2.33;;;;;-147.17;100.00;-15917.19;5054294;28;50938;-63
2023/05/12 04:59:21;;;;;;;;;2.00;2.00;;;;;-147.17;100.00;-15917.19;5054102;28;51815;-65
2023/05/12 05:01:47;;;;;;;;;8.33;5.67;;;;;-147.17;100.00;-15917.19;5054152;28;51156;-65
2023/05/12 05:04:12;;;;;;;;;3.33;2.67;;;;;-147.17;100.00;-15917.19;5054147;28;51053;-65
2023/05/12 05:06:38;;;;;;;;;3.00;3.00;;;;;-147.17;100.00;-15917.19;5052553;28;51263;-65
2023/05/12 05:09:03;;;;;;;;;3.00;3.00;;;;;-147.17;100.00;-15917.19;5032948;28;51645;-65
2023/05/12 05:11:28;;;;;;;;;3.00;2.00;;;;;-147.17;100.00;-15917.19;5048724;28;51208;-65
2023/05/12 05:13:54;;;;;;;;;1.00;1.00;;;;;-147.17;100.00;-15917.19;5050604;28;52043;-65
2023/05/12 05:16:19;;;;;;;;;2.00;2.00;;;;;-147.17;100.00;-15917.19;5047166;28;51158;-65
2023/05/12 05:18:45;;;;;;;;;2.00;1.67;;;;;-147.17;100.00;-15917.19;5053727;28;51888;-64
2023/05/12 05:21:12;;;;;;;;;3.00;3.00;;;;;-147.17;100.00;-15917.19;5053887;28;51119;-65
2023/05/12 05:23:38;;;;;;;;;2.00;2.00;;;;;-147.17;100.00;-15917.19;5045498;28;51168;-65
2023/05/12 05:26:03;;;;;;;;;2.00;1.67;;;;;-147.17;100.00;-15917.19;5047879;28;51429;-65
2023/05/12 05:28:29;;;;;;;;;2.00;2.00;;;;;-147.17;100.00;-15917.19;5051441;28;51730;-65
2023/05/12 05:30:55;;;;;;;;;2.33;2.33;;;;;-147.17;100.00;-15917.19;5051027;28;51135;-64
2023/05/12 05:33:20;;;;;;;;;2.67;2.00;;;;;-147.17;100.00;-15917.19;5051300;28;51467;-64
2023/05/12 05:35:46;;;;;;;;;3.00;3.00;;;;;-147.17;100.00;-15917.19;5046874;28;51378;-64
2023/05/12 05:38:12;;;;;;;;;2.00;2.00;;;;;-147.17;100.00;-15917.19;5046454;28;52749;-63
2023/05/12 05:40:37;;;;;;;;;3.67;3.67;;;;;-147.17;100.00;-15917.19;5053674;28;51244;-64
2023/05/12 05:43:02;;;;;;;;;4.00;3.00;;;;;-147.17;100.00;-15917.19;5050168;28;56581;-66
2023/05/12 05:45:28;;;;;;;;;3.00;2.00;;;;;-147.17;100.00;-15917.19;5051682;28;51020;-65
2023/05/12 05:47:53;;;;;;;;;2.00;2.00;;;;;-147.17;100.00;-15917.19;5048919;28;51886;-63
2023/05/12 05:50:19;;;;;;;;;2.00;2.00;;;;;-147.17;100.00;-15917.19;5041354;28;51045;-63
2023/05/12 05:52:44;;;;;;;;;5.33;4.00;;;;;-147.17;100.00;-15917.19;5037754;28;51358;-64
2023/05/12 05:55:10;;;;;;;;;9.75;8.75;;;;;-147.17;100.00;-15917.19;5047958;28;51069;-64
2023/05/12 05:57:35;;;;;;;;;2.67;2.00;;;;;-147.17;100.00;-15668.00;5051654;28;51721;-64
2023/05/12 06:00:00;;;;;;;;;3.00;1.67;;;;;-147.17;100.00;-15172.50;5053068;28;51080;-64
2023/05/12 06:02:26;;;;;;;;;2.00;2.00;;;;;-147.17;100.00;-15172.50;5048666;28;52181;-63
2023/05/12 06:04:52;;;;;;;;;3.00;2.00;;;;;-147.17;100.00;-15172.50;5053315;28;51178;-65
2023/05/12 06:07:17;;;;;;;;;3.00;3.00;;;;;-147.17;100.00;-15420.25;5050470;28;51926;-66
2023/05/12 06:09:42;;;;;;;;;4.00;4.00;;;;;-147.17;100.00;-15172.50;5046319;28;51179;-65
2023/05/12 06:12:08;;;;;;;;;5.00;4.00;;;;;-147.17;100.00;-15172.50;5047585;28;51241;-65
2023/05/12 06:14:33;;;;;;;;;4.33;3.67;;;;;-147.17;100.00;-15420.25;5047374;28;51216;-65
2023/05/12 06:16:58;;;;;;;;;3.33;3.33;;;;;-147.17;100.00;-15172.50;5051353;28;55986;-65
2023/05/12 06:19:24;;;;;;;;;4.00;4.00;;;;;-147.17;100.00;-15420.25;5036990;28;51311;-65
2023/05/12 06:21:51;;;;;;;;;4.67;4.00;;;;;-147.17;100.00;-15668.00;5043374;28;52705;-68
2023/05/12 06:24:16;;;;;;;;;5.00;5.00;;;;;-147.17;100.00;-15915.72;5039099;28;52606;-66
2023/05/12 06:26:42;;;;;;;;;5.00;4.00;;;;;-147.17;100.00;-15915.72;5049891;28;51668;-66
2023/05/12 06:29:07;;;;;;;;;3.00;3.00;;;;;-147.17;100.00;-15915.72;5046335;28;51166;-66
2023/05/12 06:31:33;;;;;;;;;4.00;3.67;;;;;-147.17;100.00;-15915.72;5030835;28;51176;-64
2023/05/12 06:33:58;;;;;;;;;3.00;3.00;;;;;-147.17;100.00;-15915.72;5042530;28;51172;-65
2023/05/12 06:36:24;;;;;;;;;3.00;3.00;;;;;-147.17;100.00;-15420.25;5052955;28;51350;-64
2023/05/12 06:38:49;;;;;;;;;4.00;3.33;;;;;-147.17;100.00;-15420.25;5050762;28;51445;-64
2023/05/12 06:41:15;;;;;;;;;3.67;3.00;;;;;-147.17;100.00;-15420.25;5048243;28;51416;-64
2023/05/12 06:43:41;;;;;;;;;4.00;3.33;;;;;-147.17;100.00;-15668.00;5042600;28;51104;-66
2023/05/12 06:46:07;;;;;;;;;4.00;4.00;;;;;-147.17;100.00;-15915.72;5042155;28;52021;-65
2023/05/12 06:48:32;;;;;;;;;5.00;5.00;;;;;-147.17;100.00;-15917.19;5051272;28;51182;-65
2023/05/12 06:50:58;;;;;;;;;5.33;5.00;;;;;-147.17;100.00;-15668.00;5035155;28;51363;-66
2023/05/12 06:53:23;;;;;;;;;4.33;4.33;;;;;-147.17;100.00;-15420.25;5053272;28;50990;-63
2023/05/12 06:55:49;;;;;;;;;5.33;5.00;;;;;-147.17;100.00;-14676.94;5053206;28;51804;-66
2023/05/12 06:58:15;;;;;;;;;5.67;5.33;;;;;-147.17;100.00;-14181.31;5053191;28;51101;-65
2023/05/12 07:00:40;;;;;;;;;3.00;2.67;;;;;-147.17;100.00;-12694.06;5030414;28;51378;-64
2023/05/12 07:03:08;;;;;;;;;5.33;5.00;;;;;-147.17;100.00;-12694.06;5047520;28;51970;-65
2023/05/12 07:05:34;;;;;;;;;4.00;4.00;;;;;-147.17;100.00;-11454.25;5052295;28;50923;-66
2023/05/12 07:08:00;;;;;;;;;5.33;5.00;;;;;-147.17;100.00;-9717.81;5050417;28;51138;-69
2023/05/12 07:10:25;;;;;;;;;8.00;6.00;;;;;-147.17;100.00;-7980.59;5048831;28;51191;-66
2023/05/12 07:12:50;;;;;;;;;5.00;3.00;;;;;-147.17;100.00;-6739.25;5052697;28;51317;-64
2023/05/12 07:15:16;;;;;;;;;7.00;6.00;;;;;-147.17;100.00;-5745.88;5051147;28;51898;-64
2023/05/12 07:17:41;;;;;;;;;5.00;4.00;;;;;-147.17;100.00;-2764.22;5032291;28;51018;-65
2023/05/12 07:20:08;;;;;;;;;5.33;5.00;;;;;-147.17;100.00;-2018.47;5024908;28;51366;-66
2023/05/12 07:22:34;;;;;;;;;2.00;2.00;;;;;-147.17;100.00;-2018.47;5045392;28;51272;-67
2023/05/12 07:24:59;;;;;;;;;5.33;3.67;;;;;-147.17;100.00;1214.91;5050339;28;51227;-64
2023/05/12 07:27:24;;;;;;;;;4.00;3.67;;;;;-147.17;100.00;1712.56;5049848;28;51125;-68
2023/05/12 07:29:50;;;;;;;;;3.67;3.67;;;;;-147.17;100.00;1961.44;5050898;28;51025;-66
2023/05/12 07:32:15;;;;;;;;;3.67;3.33;;;;;-147.17;100.00;1214.91;5052701;28;52409;-61
2023/05/12 07:34:40;;;;;;;;;5.00;4.00;;;;;-147.17;100.00;6942.09;5051015;28;52126;-63
2023/05/12 07:37:06;;;;;;;;;5.00;5.00;;;;;-147.17;100.00;8936.16;5048641;28;51266;-60
2023/05/12 07:39:31;;;;;;;;;3.33;3.33;;;;;-147.17;100.00;5696.34;5051160;28;51252;-62
2023/05/12 07:41:58;;;;;;;;;5.00;5.00;;;;;-147.17;100.00;7191.28;5042798;28;51346;-60
2023/05/12 07:44:26;;;;;;;;;5.00;5.00;;;;;-147.17;100.00;7939.00;5040584;28;51875;-61
2023/05/12 07:46:51;;;;;;;;;5.00;5.00;;;;;-147.17;100.00;12428.22;5052465;28;51200;-62
2023/05/12 07:49:17;;;;;;;;;4.67;4.00;;;;;-147.17;100.00;11679.66;5052554;28;51030;-68
2023/05/12 07:51:42;;;;;;;;;5.00;4.00;;;;;-147.17;100.00;15923.47;5040972;28;50957;-68
2023/05/12 07:54:08;;;;;;;;;3.00;3.00;;;;;-147.17;100.00;16672.84;5047437;28;51048;-71
2023/05/12 07:56:34;;;;;;;;;6.33;6.33;;;;;-147.17;100.00;13176.94;5034596;28;51203;-68
2023/05/12 07:58:59;;;;;;;;;4.00;3.00;;;;;-147.17;100.00;12428.22;5048122;28;51663;-67
2023/05/12 08:01:24;;;;;;;;;6.00;5.00;;;;;-147.17;100.00;10432.38;5038964;28;51272;-70
2023/05/12 08:03:50;;;;;;;;;4.33;4.00;;;;;-147.17;100.00;13925.81;5039148;28;51540;-71
2023/05/12 08:06:16;;;;;;;;;3.00;3.00;;;;;-147.17;100.00;18921.88;5051496;28;50974;-73
2023/05/12 08:08:42;;;;;;;;;6.00;5.33;;;;;-147.17;100.00;14674.81;5027724;28;51137;-72
2023/05/12 08:11:08;;;;;;;;;4.00;4.00;;;;;-147.17;100.00;14425.13;5049989;28;51418;-73
2023/05/12 08:13:34;;;;;;;;;4.00;4.00;;;;;-147.17;100.00;12428.22;5051657;28;52141;-73
2023/05/12 08:16:00;;;;;;;;;4.67;4.67;;;;;-147.17;100.00;12428.22;5051694;28;51067;-71
2023/05/12 08:18:25;;;;;;;;;4.00;3.00;;;;;-147.17;100.00;10931.25;5028846;28;51432;-73
2023/05/12 08:20:50;;;;;;;;;5.00;5.00;;;;;-147.17;100.00;11929.16;5039276;28;53171;-73
2023/05/12 08:23:16;;;;;;;;;4.67;4.67;;;;;-147.17;100.00;10681.81;5048483;28;52009;-73
2023/05/12 08:25:43;;;;;;;;;4.00;4.00;;;;;-147.17;100.00;9684.19;5049191;28;51151;-71
2023/05/12 08:28:09;;;;;;;;;4.67;4.67;;;;;-147.17;100.00;8686.84;5045748;28;51225;-71
2023/05/12 08:30:34;;;;;;;;;5.67;5.00;;;;;-147.17;100.00;6692.91;5051395;28;50985;-71
2023/05/12 08:33:00;;;;;;;;;7.00;7.00;;;;;-147.17;100.00;5696.34;5051053;28;52458;-72
2023/05/12 08:35:26;;;;;;;;;6.00;5.67;;;;;-147.17;100.00;4700.00;5051697;28;51200;-71
2023/05/12 08:37:52;;;;;;;;;6.00;6.00;;;;;-147.17;100.00;2210.31;5045252;28;51277;-70
2023/05/12 08:40:20;;;;;;;;;6.00;5.67;;;;;-147.17;100.00;1214.91;5041758;28;51363;-71
2023/05/12 08:43:06;;;;;;;;;7.00;6.00;;;;;-147.17;100.00;-2267.06;5041028;28;52437;-71
2023/05/12 08:45:31;;;;;;;;;4.67;3.33;;;;;-147.17;100.00;-4255.34;5047654;28;51153;-71
2023/05/12 08:47:58;;;;;;;;;7.00;6.67;;;;;-147.17;100.00;-6490.94;5051903;28;51038;-71
2023/05/12 08:50:25;;;;;;;;;5.33;5.33;;;;;-147.17;100.00;-7484.09;5051719;28;51291;-72
2023/05/12 08:52:52;;;;;;;;;8.67;7.00;;;;;-147.17;100.00;-8725.22;5048706;28;52076;-71
2023/05/12 08:55:19;;;;;;;;;4.67;4.67;;;;;-147.17;100.00;-9965.91;5051015;28;50890;-72
2023/05/12 08:57:47;;;;;;;;;7.00;6.33;;;;;-147.17;100.00;-11454.25;5049577;28;51186;-71
2023/05/12 09:00:14;;;;;;;;;7.00;6.00;;;;;-147.17;100.00;-12446.13;5049664;28;51349;-72
2023/05/12 09:02:41;;;;;;;;;7.67;7.67;;;;;-147.17;100.00;-13933.50;5039469;28;51240;-72
2023/05/12 09:05:08;;;;;;;;;6.67;6.67;;;;;-147.17;100.00;-14924.75;5040300;28;51071;-73
2023/05/12 09:07:35;;;;;;;;;8.00;7.67;;;;;-147.17;100.00;-15172.50;5047815;28;51287;-73
2023/05/12 09:10:03;;;;;;;;;8.67;8.67;;;;;-147.17;100.00;-15915.72;5052316;28;51242;-73
2023/05/12 09:12:33;;;;;;;;;10.33;10.00;;;;;-147.17;100.00;-15917.19;5051898;28;52261;-73
2023/05/12 09:15:07;;;;;;;;;10.00;9.33;;;;;-147.17;100.00;-15917.19;5049179;28;51995;-72
2023/05/12 09:17:34;;;;;;;;;10.33;10.00;;;;;-147.17;100.00;-15917.19;5046756;28;51067;-72
2023/05/12 09:20:00;;;;;;;;;12.33;11.67;;;;;-147.17;100.00;-15917.19;5052746;28;51095;-72
2023/05/12 09:22:30;;;;;;;;;14.00;13.33;;;;;-147.17;100.00;-15917.19;5051056;28;51195;-71
2023/05/12 09:24:55;;;;;;;;;9.67;9.00;;;;;-147.17;100.00;-15917.19;5048450;28;51174;-71
2023/05/12 09:27:26;;;;;;;;;10.00;9.00;;;;;-147.17;100.00;-15917.19;5047335;28;51056;-71
2023/05/12 09:29:51;;;;;;;;;11.00;10.00;;;;;-147.17;100.00;-15917.19;5036791;28;51196;-70
2023/05/12 09:32:16;;;;;;;;;14.00;11.67;;;;;-147.17;100.00;-15917.19;5053188;28;51088;-70
2023/05/12 09:34:42;;;;;;;;;16.33;14.33;;;;;-147.17;100.00;-15917.19;5053545;28;51269;-71
2023/05/12 09:37:07;;;;;;;;;14.33;12.67;;;;;-147.17;100.00;-15917.19;5052842;28;51401;-70
2023/05/12 09:39:33;;;;;;;;;13.00;13.00;;;;;-147.17;100.00;-15917.19;5055240;28;51034;-70
2023/05/12 09:41:59;;;;;;;;;12.00;12.00;;;;;-147.17;100.00;-15917.19;5054204;28;52353;-70
2023/05/12 09:44:25;;;;;;;;;14.67;13.67;;;;;-147.17;100.00;-15917.19;5054431;28;51156;-70
2023/05/12 09:46:52;;;;;;;;;14.00;14.00;;;;;-147.17;100.00;-15917.19;5054418;28;51263;-70
2023/05/12 09:49:24;;;;;;;;;14.00;13.00;;;;;-147.17;100.00;-15917.19;5036376;28;51034;-71
2023/05/12 09:51:55;;;;;;;;;13.00;11.67;;;;;-147.17;100.00;-15917.19;5053345;28;51991;-69
2023/05/12 09:54:28;;;;;;;;;10.67;10.67;;;;;-147.17;100.00;-15917.19;5053243;28;51224;-70
2023/05/12 09:56:58;;;;;;;;;10.00;9.00;;;;;-147.17;100.00;-15917.19;5054413;28;51164;-70
2023/05/12 09:59:27;;;;;;;;;11.00;10.33;;;;;-147.17;100.00;-15917.19;5054600;28;51385;-70
2023/05/12 10:01:57;;;;;;;;;10.00;8.33;;;;;-147.17;100.00;-15917.19;5053713;28;50981;-70
2023/05/12 10:04:23;;;;;;;;;9.67;9.00;;;;;-147.17;100.00;-15917.19;5045069;28;51006;-70
2023/05/12 10:06:51;;;;;;;;;10.00;9.67;;;;;-147.17;100.00;-15917.19;5053852;28;51015;-70
2023/05/12 10:09:26;;;;;;;;;9.00;8.67;;;;;-147.17;100.00;-15917.19;5051042;28;50994;-69
2023/05/12 10:11:52;;;;;;;;;14.00;12.00;;;;;-147.17;100.00;-15917.19;5053015;28;51080;-71
2023/05/12 10:14:18;;;;;;;;;9.67;9.67;;;;;-147.17;100.00;-15917.19;5034559;28;51117;-69
2023/05/12 10:16:45;;;;;;;;;9.33;9.33;;;;;-147.17;100.00;-15917.19;5053386;28;51072;-70
2023/05/12 10:19:12;;;;;;;;;9.00;9.00;;;;;-147.17;100.00;-15917.19;5053490;28;51131;-71
2023/05/12 10:21:38;;;;;;;;;10.67;10.00;;;;;-147.17;100.00;-15917.19;5034210;28;52051;-71
2023/05/12 10:24:04;;;;;;;;;12.00;11.00;;;;;-147.17;100.00;-15917.19;5034231;28;51059;-70
2023/05/12 10:26:31;;;;;;;;;12.33;10.00;;;;;-147.17;100.00;-15917.19;5053173;28;51214;-71
2023/05/12 10:28:57;;;;;;;;;9.00;9.00;;;;;-147.17;100.00;-15917.19;5053167;28;50925;-71
2023/05/12 10:31:24;;;;;;;;;11.00;11.00;;;;;-147.17;100.00;-15917.19;5053840;28;50938;-69
2023/05/12 10:34:00;;;;;;;;;10.00;9.67;;;;;-147.17;100.00;-15917.19;5042555;28;51721;-69
2023/05/12 10:36:26;;;;;;;;;11.00;11.00;;;;;-147.17;100.00;-15917.19;5048342;28;51201;-70
2023/05/12 10:38:52;;;;;;;;;8.33;8.00;;;;;-147.17;100.00;-15917.19;5049207;28;51208;-70
2023/05/12 10:41:30;;;;;;;;;12.00;11.00;;;;;-147.17;100.00;-15917.19;5053404;28;51139;-70
2023/05/12 10:43:56;;;;;;;;;12.00;11.33;;;;;-147.17;100.00;-15917.19;5053556;28;51212;-70
2023/05/12 10:46:23;;;;;;;;;9.67;9.00;;;;;-147.17;100.00;-15917.19;5053072;28;51359;-71
2023/05/12 10:48:54;;;;;;;;;9.00;9.00;;;;;-147.17;100.00;-15917.19;5053632;28;51339;-71
2023/05/12 10:51:22;;;;;;;;;9.67;9.00;;;;;-147.17;100.00;-15917.19;5031127;28;53530;-71
2023/05/12 10:54:01;;;;;;;;;13.00;12.33;;;;;-147.17;100.00;-15917.19;5044514;28;50930;-72
2023/05/12 10:56:30;;;;;;;;;11.00;10.00;;;;;-147.17;100.00;-15917.19;5052650;28;51038;-71